Time;durP1;ratioP1;P1;durP2;ratioP2;P2;SDS_P1;SDS_P2;PMS_P1;PMS_P2;Temp;Humidity;BMP_temperature;BMP_pressure;BME280_temperature;BME280_humidity;BME280_pressure;Samples;Min_cycle;Max_cycle;Signal;HPM_P1;HPM_P2
2022/12/13 00:00:53;;;;;;;33.78;15.77;;;-0.60;99.90;;;;;;4180228;28;20033;-62
2022/12/13 00:02:53;;;;;;;38.15;17.35;;;-0.80;99.90;;;;;;4176863;28;20055;-62
2022/12/13 00:04:54;;;;;;;33.97;16.23;;;-0.90;99.90;;;;;;4171574;28;20459;-62
2022/12/13 00:06:54;;;;;;;33.35;16.10;;;-0.90;99.90;;;;;;4175315;28;20387;-62
2022/12/13 00:08:56;;;;;;;37.80;15.45;;;-0.90;99.90;;;;;;4184736;28;20089;-62
2022/12/13 00:11:01;;;;;;;27.80;15.50;;;-0.90;99.90;;;;;;4177241;28;20041;-62
2022/12/13 00:13:03;;;;;;;35.05;15.55;;;-0.90;99.90;;;;;;4188674;28;20127;-62
2022/12/13 00:15:05;;;;;;;34.05;15.32;;;-0.80;99.90;;;;;;4186431;28;20037;-63
2022/12/13 00:17:06;;;;;;;32.40;14.48;;;-0.80;99.90;;;;;;4176314;28;20029;-62
2022/12/13 00:19:06;;;;;;;32.58;16.00;;;-0.80;99.90;;;;;;4181525;28;20045;-62
2022/12/13 00:21:10;;;;;;;34.28;16.50;;;-0.80;99.90;;;;;;4187500;28;20086;-62
2022/12/13 00:23:11;;;;;;;32.17;14.75;;;-0.80;99.90;;;;;;4182491;28;20048;-62
2022/12/13 00:25:12;;;;;;;30.73;14.65;;;-0.80;99.90;;;;;;4189037;28;20419;-62
2022/12/13 00:27:12;;;;;;;33.92;16.30;;;-0.70;99.90;;;;;;4186236;28;20535;-62
2022/12/13 00:29:13;;;;;;;34.00;15.95;;;-0.70;99.90;;;;;;4187525;28;20037;-62
2022/12/13 00:31:14;;;;;;;36.83;16.83;;;-0.70;99.90;;;;;;4185854;28;20069;-62
2022/12/13 00:33:15;;;;;;;37.03;16.30;;;-0.70;99.90;;;;;;4191646;28;20460;-62
2022/12/13 00:35:15;;;;;;;34.42;16.35;;;-0.70;99.90;;;;;;4183083;28;20044;-62
2022/12/13 00:37:16;;;;;;;32.30;16.38;;;-0.70;99.90;;;;;;4189572;28;20032;-62
2022/12/13 00:39:17;;;;;;;31.90;15.15;;;-0.70;99.90;;;;;;4190476;28;20094;-62
2022/12/13 00:41:19;;;;;;;32.03;15.63;;;-0.70;99.90;;;;;;4187310;28;20037;-62
2022/12/13 00:43:20;;;;;;;39.03;16.73;;;-0.70;99.90;;;;;;4191607;28;20048;-62
2022/12/13 00:45:20;;;;;;;32.75;16.35;;;-0.70;99.90;;;;;;4184924;28;20546;-62
2022/12/13 00:47:21;;;;;;;32.90;15.82;;;-0.70;99.90;;;;;;4189029;28;20043;-62
2022/12/13 00:49:22;;;;;;;31.45;16.15;;;-0.70;99.90;;;;;;4187134;28;20091;-62
2022/12/13 00:51:24;;;;;;;31.52;15.90;;;-0.70;99.90;;;;;;4190146;28;20079;-61
2022/12/13 00:53:25;;;;;;;30.52;16.05;;;-0.70;99.90;;;;;;4187462;28;20056;-62
2022/12/13 00:55:25;;;;;;;34.28;15.73;;;-0.70;99.90;;;;;;4189146;28;21316;-62
2022/12/13 00:57:26;;;;;;;31.65;15.63;;;-0.70;99.90;;;;;;4189499;28;20033;-62
2022/12/13 00:59:27;;;;;;;33.90;16.48;;;-0.70;99.90;;;;;;4190947;28;20501;-62
2022/12/13 01:01:31;;;;;;;36.15;16.60;;;-0.70;99.90;;;;;;4186190;28;20754;-61
2022/12/13 01:03:31;;;;;;;32.38;15.27;;;-0.70;99.90;;;;;;4174780;28;20049;-62
2022/12/13 01:05:34;;;;;;;31.65;15.55;;;-0.70;99.90;;;;;;4172817;28;20102;-62
2022/12/13 01:07:36;;;;;;;32.95;14.75;;;-0.80;99.90;;;;;;4184957;28;20048;-62
2022/12/13 01:09:38;;;;;;;33.65;16.02;;;-0.80;99.90;;;;;;4186749;28;20040;-62
2022/12/13 01:11:39;;;;;;;29.55;15.02;;;-0.80;99.90;;;;;;4181626;28;20033;-62
2022/12/13 01:13:40;;;;;;;33.70;15.65;;;-0.80;99.90;;;;;;4178295;28;20063;-63
2022/12/13 01:15:45;;;;;;;32.20;15.43;;;-0.80;99.90;;;;;;4187530;28;20044;-62
2022/12/13 01:17:46;;;;;;;30.60;15.35;;;-0.80;99.90;;;;;;4187051;28;20063;-62
2022/12/13 01:19:46;;;;;;;30.45;15.38;;;-0.80;99.90;;;;;;4193424;28;20060;-62
2022/12/13 01:21:47;;;;;;;33.78;16.23;;;-0.80;99.90;;;;;;4184514;28;20041;-62
2022/12/13 01:23:48;;;;;;;33.63;15.45;;;-0.80;99.90;;;;;;4184356;28;20252;-62
2022/12/13 01:25:49;;;;;;;34.78;16.15;;;-0.80;99.90;;;;;;4178765;28;20039;-62
2022/12/13 01:27:49;;;;;;;32.30;16.27;;;-0.80;99.90;;;;;;4188931;28;20433;-62
2022/12/13 01:29:50;;;;;;;36.00;16.55;;;-0.70;99.90;;;;;;4193371;28;20041;-62
2022/12/13 01:31:50;;;;;;;31.70;15.85;;;-0.70;99.90;;;;;;4183770;28;20047;-61
2022/12/13 01:33:51;;;;;;;31.33;16.67;;;-0.70;99.90;;;;;;4181129;28;20468;-61
2022/12/13 01:35:53;;;;;;;34.75;16.10;;;-0.70;99.90;;;;;;4180388;28;20127;-62
2022/12/13 01:37:54;;;;;;;35.47;16.42;;;-0.70;99.90;;;;;;4191419;28;20098;-61
2022/12/13 01:39:55;;;;;;;28.75;14.50;;;-0.70;99.90;;;;;;4188711;28;20032;-61
2022/12/13 01:41:58;;;;;;;32.00;15.88;;;-0.70;99.90;;;;;;4191398;28;20406;-62
2022/12/13 01:44:20;;;;;;;30.65;14.88;;;-0.70;99.90;;;;;;4193626;28;20530;-62
2022/12/13 01:46:21;;;;;;;31.27;14.57;;;-0.70;99.90;;;;;;4146109;28;20115;-62
2022/12/13 01:48:29;;;;;;;30.70;14.70;;;-0.60;99.90;;;;;;4192359;28;20071;-62
2022/12/13 01:50:37;;;;;;;33.40;15.55;;;-0.70;99.90;;;;;;4191030;28;20032;-61
2022/12/13 01:52:40;;;;;;;33.45;15.65;;;-0.70;99.90;;;;;;4178069;28;20045;-61
2022/12/13 01:54:46;;;;;;;29.98;15.20;;;-0.90;99.90;;;;;;4184391;28;20376;-62
2022/12/13 01:56:52;;;;;;;32.45;14.02;;;-1.00;99.90;;;;;;4172404;28;20029;-62
2022/12/13 01:58:54;;;;;;;31.15;15.20;;;-1.10;99.90;;;;;;4186418;28;20041;-62
2022/12/13 02:00:56;;;;;;;32.33;16.00;;;-1.10;99.90;;;;;;4177737;28;20033;-61
2022/12/13 02:02:58;;;;;;;30.63;15.25;;;-1.10;99.90;;;;;;4177487;28;20053;-62
2022/12/13 02:05:06;;;;;;;35.85;17.52;;;-1.20;99.90;;;;;;4171012;28;20136;-61
2022/12/13 02:07:08;;;;;;;33.85;15.88;;;-1.10;99.90;;;;;;4177574;28;20401;-61
2022/12/13 02:09:09;;;;;;;35.25;15.75;;;-1.10;99.90;;;;;;4181845;28;20044;-62
2022/12/13 02:11:10;;;;;;;34.72;16.35;;;-1.10;99.90;;;;;;4174682;28;20037;-62
2022/12/13 02:13:11;;;;;;;33.63;15.07;;;-1.10;99.90;;;;;;4193641;28;20051;-62
2022/12/13 02:15:14;;;;;;;30.50;14.80;;;-1.10;99.90;;;;;;4190898;28;20037;-62
2022/12/13 02:17:33;;;;;;;34.53;16.48;;;-1.10;99.90;;;;;;4192281;28;20040;-62
2022/12/13 02:19:58;;;;;;;31.20;14.75;;;-1.10;99.90;;;;;;4188597;28;20049;-62
2022/12/13 02:22:26;;;;;;;30.10;14.25;;;-1.10;99.90;;;;;;4184967;28;20100;-62
2022/12/13 02:25:04;;;;;;;33.05;14.38;;;-1.10;99.90;;;;;;4175492;28;20029;-61
2022/12/13 02:27:42;;;;;;;28.80;14.40;;;-1.10;99.90;;;;;;4173067;28;20932;-61
2022/12/13 02:29:58;;;;;;;36.10;15.73;;;-1.10;99.90;;;;;;4173468;28;20048;-62
2022/12/13 02:32:28;;;;;;;33.70;16.08;;;-1.10;99.90;;;;;;4174305;28;20090;-62
2022/12/13 02:34:43;;;;;;;31.63;14.38;;;-1.10;99.90;;;;;;4157619;28;20083;-61
2022/12/13 02:37:25;;;;;;;28.73;13.80;;;-1.10;99.90;;;;;;4184416;28;20055;-61
2022/12/13 02:39:31;;;;;;;32.33;15.60;;;-1.10;99.90;;;;;;4178653;28;20372;-62
2022/12/13 02:41:56;;;;;;;30.15;14.23;;;-1.10;99.90;;;;;;4184184;28;20502;-61
2022/12/13 02:44:02;;;;;;;34.30;14.57;;;-1.10;99.90;;;;;;4185323;28;20120;-61
2022/12/13 02:46:04;;;;;;;29.50;14.82;;;-1.20;99.90;;;;;;4183819;28;20029;-61
2022/12/13 02:48:08;;;;;;;31.90;15.13;;;-1.20;99.90;;;;;;4171554;28;20037;-61
2022/12/13 02:50:12;;;;;;;30.27;14.60;;;-1.20;99.90;;;;;;4180521;28;20044;-62
2022/12/13 02:52:17;;;;;;;30.60;14.38;;;-1.20;99.90;;;;;;4187652;28;20028;-61
2022/12/13 02:54:17;;;;;;;28.85;13.52;;;-1.20;99.90;;;;;;4183052;28;20033;-62
2022/12/13 02:56:18;;;;;;;30.45;15.07;;;-1.20;99.90;;;;;;4185585;28;20059;-62
2022/12/13 02:58:31;;;;;;;28.92;15.05;;;-1.30;99.90;;;;;;4184013;28;20045;-62
2022/12/13 03:00:34;;;;;;;;;;;-1.30;99.90;;;;;;4171293;28;20415;-61
2022/12/13 03:02:42;;;;;;;32.25;14.75;;;-1.30;99.90;;;;;;4172389;28;19909;-61
2022/12/13 03:08:05;;;;;;;31.05;14.30;;;-1.30;99.90;;;;;;4187787;28;20025;-62
2022/12/13 03:10:14;;;;;;;26.60;14.00;;;-1.40;99.90;;;;;;4183865;28;20050;-62
2022/12/13 03:15:05;;;;;;;32.35;14.35;;;-1.40;99.90;;;;;;4177794;28;20052;-62
2022/12/13 03:17:08;;;;;;;29.20;13.48;;;-1.40;99.90;;;;;;4184867;28;20392;-61
2022/12/13 03:19:10;;;;;;;;;;;-1.40;99.90;;;;;;4178195;28;20480;-61
2022/12/13 03:21:11;;;;;;;28.30;13.43;;;-1.40;99.90;;;;;;4185710;28;19987;-61
2022/12/13 03:23:12;;;;;;;30.67;14.70;;;-1.40;99.90;;;;;;4190915;28;20128;-62
2022/12/13 03:25:14;;;;;;;30.90;14.73;;;-1.40;99.90;;;;;;4185034;28;20064;-62
2022/12/13 03:27:14;;;;;;;30.63;13.75;;;-1.50;99.90;;;;;;4187079;28;20064;-61
2022/12/13 03:29:16;;;;;;;27.90;12.98;;;-1.40;99.90;;;;;;4179483;28;20037;-62
2022/12/13 03:31:16;;;;;;;29.50;14.38;;;-1.50;99.90;;;;;;4172034;28;20041;-62
2022/12/13 03:33:17;;;;;;;29.23;14.55;;;-1.50;99.90;;;;;;4187310;28;20464;-62
2022/12/13 03:35:18;;;;;;;30.33;13.70;;;-1.50;99.90;;;;;;4184826;28;20454;-62
2022/12/13 03:37:19;;;;;;;29.13;14.07;;;-1.50;99.90;;;;;;4191106;28;20052;-62
2022/12/13 03:39:21;;;;;;;32.20;15.30;;;-1.50;99.90;;;;;;4190013;28;20491;-62
2022/12/13 03:41:30;;;;;;;31.13;14.27;;;-1.50;99.90;;;;;;4180447;28;20050;-61
2022/12/13 03:43:30;;;;;;;29.25;14.32;;;-1.50;99.90;;;;;;4192186;28;20052;-61
2022/12/13 03:45:31;;;;;;;30.05;14.15;;;-1.50;99.90;;;;;;4186891;28;20044;-61
2022/12/13 03:47:31;;;;;;;30.00;14.75;;;-1.50;99.90;;;;;;4190716;28;20036;-61
2022/12/13 03:49:32;;;;;;;29.77;13.75;;;-1.50;99.90;;;;;;4190611;28;20048;-61
2022/12/13 03:51:33;;;;;;;28.98;14.27;;;-1.50;99.90;;;;;;4190508;28;20043;-61
2022/12/13 03:53:33;;;;;;;37.00;15.27;;;-1.50;99.90;;;;;;4186248;28;20430;-61
2022/12/13 03:55:34;;;;;;;28.20;13.27;;;-1.60;99.90;;;;;;4172855;28;20029;-61
2022/12/13 03:57:35;;;;;;;32.42;14.80;;;-1.50;99.90;;;;;;4174507;28;20508;-61
2022/12/13 03:59:35;;;;;;;30.55;15.45;;;-1.60;99.90;;;;;;4170247;28;20514;-61
2022/12/13 04:01:36;;;;;;;33.65;14.60;;;-1.60;99.90;;;;;;4182127;28;20036;-61
2022/12/13 04:03:40;;;;;;;32.05;15.10;;;-1.60;99.90;;;;;;4177145;28;20041;-61
2022/12/13 04:05:41;;;;;;;33.25;14.50;;;-1.50;99.90;;;;;;4189909;28;20542;-62
2022/12/13 04:07:42;;;;;;;33.88;14.23;;;-1.50;99.90;;;;;;4178350;28;20100;-61
2022/12/13 04:09:42;;;;;;;29.00;14.20;;;-1.60;99.90;;;;;;4177267;28;20033;-61
2022/12/13 04:14:02;;;;;;;29.58;14.27;;;-1.60;99.90;;;;;;4175492;28;20049;-61
2022/12/13 04:16:03;;;;;;;31.10;14.07;;;-1.60;99.90;;;;;;4177104;28;20055;-61
2022/12/13 04:18:04;;;;;;;33.80;15.10;;;-1.60;99.90;;;;;;4179643;28;20484;-61
2022/12/13 04:20:05;;;;;;;27.50;14.10;;;-1.60;99.90;;;;;;4185162;28;20376;-62
2022/12/13 04:22:05;;;;;;;29.48;14.20;;;-1.60;99.90;;;;;;4188495;28;20029;-61
2022/12/13 04:24:06;;;;;;;29.02;13.90;;;-1.60;99.90;;;;;;4191289;28;22331;-61
2022/12/13 04:26:07;;;;;;;32.92;14.70;;;-1.60;99.90;;;;;;4190612;28;20113;-61
2022/12/13 04:28:07;;;;;;;32.42;15.20;;;-1.60;99.90;;;;;;4190565;28;20072;-61
2022/12/13 04:30:08;;;;;;;33.70;16.05;;;-1.60;99.90;;;;;;4184846;28;20041;-61
2022/12/13 04:32:09;;;;;;;28.45;14.50;;;-1.60;99.90;;;;;;4174070;28;20033;-61
2022/12/13 04:34:09;;;;;;;28.45;13.15;;;-1.60;99.90;;;;;;4185542;28;20029;-61
2022/12/13 04:36:10;;;;;;;29.70;14.50;;;-1.70;99.90;;;;;;4189224;28;20460;-61
2022/12/13 04:38:11;;;;;;;26.80;13.20;;;-1.70;99.90;;;;;;4190366;28;20568;-61
2022/12/13 04:40:11;;;;;;;26.70;14.27;;;-1.70;99.90;;;;;;4190195;28;20024;-62
2022/12/13 04:42:12;;;;;;;31.48;14.70;;;-1.70;99.90;;;;;;4190243;28;20024;-61
2022/12/13 04:44:12;;;;;;;26.98;13.40;;;-1.80;99.90;;;;;;4175742;28;20033;-61
2022/12/13 04:46:13;;;;;;;31.58;14.48;;;-1.80;99.90;;;;;;4173044;28;20044;-62
2022/12/13 04:48:13;;;;;;;31.65;15.15;;;-1.80;99.90;;;;;;4174305;28;20045;-62
2022/12/13 04:50:15;;;;;;;28.55;12.93;;;-1.80;99.90;;;;;;4181110;28;20526;-61
2022/12/13 04:52:15;;;;;;;30.35;13.88;;;-1.80;99.90;;;;;;4189502;28;20025;-61
2022/12/13 04:54:16;;;;;;;30.05;14.65;;;-1.90;99.90;;;;;;4190852;28;20090;-61
2022/12/13 04:56:17;;;;;;;28.90;14.35;;;-1.90;99.90;;;;;;4191282;28;20062;-61
2022/12/13 04:58:18;;;;;;;31.77;14.15;;;-1.90;99.90;;;;;;4192763;28;20064;-62
2022/12/13 05:00:20;;;;;;;31.38;14.45;;;-1.90;99.90;;;;;;4192494;28;20068;-61
2022/12/13 05:02:22;;;;;;;25.98;12.68;;;-1.90;99.90;;;;;;4188891;28;20094;-61
2022/12/13 05:04:22;;;;;;;26.38;13.35;;;-1.90;99.90;;;;;;4194386;28;20036;-61
2022/12/13 05:06:23;;;;;;;27.23;13.68;;;-1.80;99.90;;;;;;4185302;28;20033;-61
2022/12/13 05:08:23;;;;;;;31.65;14.35;;;-1.90;99.90;;;;;;4176806;28;20067;-61
2022/12/13 05:10:24;;;;;;;28.48;13.73;;;-1.90;99.90;;;;;;4176383;28;20449;-61
2022/12/13 05:12:24;;;;;;;25.92;12.60;;;-1.90;99.90;;;;;;4173932;28;20048;-61
2022/12/13 05:14:25;;;;;;;27.67;13.80;;;-1.90;99.90;;;;;;4169325;28;20041;-61
2022/12/13 05:16:25;;;;;;;27.02;13.52;;;-1.90;99.90;;;;;;4170499;28;20041;-61
2022/12/13 05:18:27;;;;;;;29.02;14.07;;;-1.90;99.90;;;;;;4174412;28;20072;-61
2022/12/13 05:20:27;;;;;;;28.27;13.77;;;-1.90;99.90;;;;;;4175726;28;20037;-61
2022/12/13 05:22:28;;;;;;;28.00;13.70;;;-1.90;99.90;;;;;;4177330;28;20059;-61
2022/12/13 05:24:31;;;;;;;31.08;14.85;;;-1.90;99.90;;;;;;4175838;28;20126;-61
2022/12/13 05:26:32;;;;;;;31.40;15.02;;;-1.90;99.90;;;;;;4172590;28;20041;-61
2022/12/13 05:28:33;;;;;;;31.27;14.13;;;-1.90;99.90;;;;;;4175130;28;20058;-61
2022/12/13 05:30:36;;;;;;;29.75;14.07;;;-1.90;99.90;;;;;;4175478;28;20037;-61
2022/12/13 05:32:39;;;;;;;30.17;14.88;;;-1.90;99.90;;;;;;4188375;28;20040;-61
2022/12/13 05:34:40;;;;;;;29.27;14.93;;;-1.80;99.90;;;;;;4190335;28;20089;-61
2022/12/13 05:36:41;;;;;;;28.50;14.02;;;-1.80;99.90;;;;;;4172545;28;20116;-61
2022/12/13 05:38:41;;;;;;;27.33;13.85;;;-1.80;99.90;;;;;;4185440;28;20048;-61
2022/12/13 05:40:42;;;;;;;29.67;13.82;;;-1.80;99.90;;;;;;4187570;28;20036;-61
2022/12/13 05:42:42;;;;;;;29.25;14.27;;;-1.80;99.90;;;;;;4189343;28;20029;-61
2022/12/13 05:44:43;;;;;;;24.73;12.95;;;-1.90;99.90;;;;;;4191981;28;20124;-61
2022/12/13 05:46:43;;;;;;;28.15;13.38;;;-1.90;99.90;;;;;;4189165;28;20068;-61
2022/12/13 05:48:44;;;;;;;30.63;14.10;;;-1.90;99.90;;;;;;4190856;28;20037;-61
2022/12/13 05:50:45;;;;;;;30.50;14.23;;;-1.90;99.90;;;;;;4175524;28;20438;-61
2022/12/13 05:52:45;;;;;;;26.73;13.95;;;-1.90;99.90;;;;;;4186569;28;20398;-61
2022/12/13 05:54:46;;;;;;;29.33;13.50;;;-1.90;99.90;;;;;;4192133;28;20043;-61
2022/12/13 05:56:47;;;;;;;29.23;13.43;;;-2.00;99.90;;;;;;4183013;28;20028;-61
2022/12/13 05:58:47;;;;;;;28.58;13.75;;;-2.00;99.90;;;;;;4181924;28;20041;-61
2022/12/13 06:00:48;;;;;;;25.90;13.00;;;-2.00;99.90;;;;;;4190696;28;20024;-61
2022/12/13 06:02:48;;;;;;;32.35;13.93;;;-2.00;99.90;;;;;;4192481;28;20086;-61
2022/12/13 06:04:49;;;;;;;30.15;14.75;;;-2.00;99.90;;;;;;4189342;28;20468;-62
2022/12/13 06:06:51;;;;;;;29.95;13.75;;;-2.00;99.90;;;;;;4184363;28;20069;-62
2022/12/13 06:08:51;;;;;;;30.60;13.68;;;-2.00;99.90;;;;;;4175959;28;20110;-61
2022/12/13 06:10:57;;;;;;;32.45;14.10;;;-2.10;99.90;;;;;;4176570;28;20057;-61
2022/12/13 06:12:58;;;;;;;32.08;14.05;;;-2.10;99.90;;;;;;4174480;28;20064;-61
2022/12/13 06:14:59;;;;;;;25.88;13.02;;;-2.10;99.90;;;;;;4176282;28;20047;-61
2022/12/13 06:16:59;;;;;;;28.83;13.50;;;-2.10;99.90;;;;;;4172743;28;20108;-61
2022/12/13 06:19:00;;;;;;;26.25;13.90;;;-2.10;99.90;;;;;;4185505;28;20041;-61
2022/12/13 06:21:05;;;;;;;31.05;14.18;;;-2.10;99.90;;;;;;4178408;28;20090;-61
2022/12/13 06:23:05;;;;;;;28.80;14.02;;;-2.10;99.90;;;;;;4176021;28;20036;-61
2022/12/13 06:25:06;;;;;;;32.92;14.23;;;-2.20;99.90;;;;;;4175624;28;20135;-61
2022/12/13 06:27:07;;;;;;;30.58;13.35;;;-2.20;99.90;;;;;;4172506;28;20041;-61
2022/12/13 06:29:07;;;;;;;28.90;12.93;;;-2.20;99.90;;;;;;4176057;28;20040;-61
2022/12/13 06:31:08;;;;;;;27.02;13.30;;;-2.20;99.90;;;;;;4191740;28;20519;-60
2022/12/13 06:33:10;;;;;;;27.48;12.77;;;-2.20;99.90;;;;;;4182684;28;20045;-60
2022/12/13 06:35:11;;;;;;;21.67;12.05;;;-2.20;99.90;;;;;;4180892;28;20047;-61
2022/12/13 06:37:13;;;;;;;26.92;13.52;;;-2.20;99.90;;;;;;4179316;28;20141;-61
2022/12/13 06:39:14;;;;;;;27.90;12.73;;;-2.20;99.90;;;;;;4183538;28;20036;-61
2022/12/13 06:41:15;;;;;;;29.13;14.25;;;-2.20;99.90;;;;;;4189230;28;20059;-61
2022/12/13 06:43:20;;;;;;;31.67;14.07;;;-2.20;99.90;;;;;;4188726;28;20501;-61
2022/12/13 06:45:21;;;;;;;27.42;13.20;;;-2.30;99.90;;;;;;4186969;28;20045;-61
2022/12/13 06:47:21;;;;;;;24.92;12.82;;;-2.30;99.90;;;;;;4189270;28;20078;-61
2022/12/13 06:49:22;;;;;;;24.27;12.85;;;-2.30;99.90;;;;;;4186192;28;20087;-61
2022/12/13 06:51:23;;;;;;;26.27;13.75;;;-2.30;99.90;;;;;;4177238;28;20040;-61
2022/12/13 06:53:24;;;;;;;27.45;14.07;;;-2.30;99.90;;;;;;4183206;28;20262;-60
2022/12/13 06:55:24;;;;;;;27.88;13.30;;;-2.30;99.90;;;;;;4175503;28;20127;-61
2022/12/13 06:57:25;;;;;;;25.77;12.77;;;-2.30;99.90;;;;;;4184159;28;20052;-61
2022/12/13 06:59:26;;;;;;;25.65;13.10;;;-2.30;99.90;;;;;;4184482;28;20080;-60
2022/12/13 07:01:26;;;;;;;30.02;14.48;;;-2.30;99.90;;;;;;4184457;28;20037;-60
2022/12/13 07:03:28;;;;;;;27.77;13.73;;;-2.30;99.90;;;;;;4186816;28;20399;-60
2022/12/13 07:05:28;;;;;;;27.00;13.27;;;-2.30;99.90;;;;;;4186495;28;20163;-60
2022/12/13 07:07:29;;;;;;;27.17;13.13;;;-2.30;99.90;;;;;;4187223;28;20067;-60
2022/12/13 07:09:31;;;;;;;28.70;13.25;;;-2.30;99.90;;;;;;4187039;28;20047;-60
2022/12/13 07:11:32;;;;;;;29.48;13.18;;;-2.30;99.90;;;;;;4187976;28;20086;-60
2022/12/13 07:13:33;;;;;;;29.23;13.73;;;-2.30;99.90;;;;;;4185776;28;20110;-60
2022/12/13 07:15:33;;;;;;;27.35;13.48;;;-2.30;99.90;;;;;;4179386;28;20489;-60
2022/12/13 07:17:34;;;;;;;28.00;13.57;;;-2.30;99.90;;;;;;4181329;28;20386;-60
2022/12/13 07:19:35;;;;;;;35.72;14.23;;;-2.30;99.90;;;;;;4177571;28;20507;-60
2022/12/13 07:21:37;;;;;;;29.17;14.02;;;-2.30;99.90;;;;;;4179796;28;20081;-61
2022/12/13 07:23:38;;;;;;;29.17;13.93;;;-2.40;99.90;;;;;;4187788;28;20086;-61
2022/12/13 07:25:39;;;;;;;32.38;14.50;;;-2.40;99.90;;;;;;4182524;28;20549;-61
2022/12/13 07:27:40;;;;;;;34.13;14.70;;;-2.40;99.90;;;;;;4182551;28;20041;-61
2022/12/13 07:29:40;;;;;;;36.72;15.57;;;-2.40;99.90;;;;;;4183988;28;20844;-61
2022/12/13 07:31:41;;;;;;;35.03;15.57;;;-2.40;99.90;;;;;;4183733;28;20051;-63
2022/12/13 07:33:42;;;;;;;34.80;15.90;;;-2.40;99.90;;;;;;4189737;28;20058;-61
2022/12/13 07:35:42;;;;;;;36.97;17.92;;;-2.30;99.90;;;;;;4183399;28;20036;-61
2022/12/13 07:37:43;;;;;;;31.73;16.27;;;-2.30;99.90;;;;;;4189036;28;20032;-61
2022/12/13 07:39:44;;;;;;;36.25;16.38;;;-2.20;99.90;;;;;;4187596;28;20857;-62
2022/12/13 07:41:45;;;;;;;37.80;17.80;;;-2.20;99.90;;;;;;4182677;28;20051;-61
2022/12/13 07:43:46;;;;;;;41.88;17.80;;;-2.20;99.90;;;;;;4175841;28;20041;-61
2022/12/13 07:45:46;;;;;;;40.95;18.23;;;-2.10;99.90;;;;;;4185821;28;20043;-62
2022/12/13 07:47:47;;;;;;;37.03;17.33;;;-2.10;99.90;;;;;;4181802;28;20448;-62
2022/12/13 07:49:48;;;;;;;38.33;17.00;;;-2.10;99.90;;;;;;4189620;28;20041;-61
2022/12/13 07:51:48;;;;;;;40.72;19.33;;;-2.00;99.90;;;;;;4188176;28;20565;-61
2022/12/13 07:53:49;;;;;;;36.95;17.50;;;-2.10;99.90;;;;;;4187582;28;20043;-62
2022/12/13 07:55:49;;;;;;;38.78;18.52;;;-2.00;99.90;;;;;;4184606;28;20040;-61
2022/12/13 07:57:52;;;;;;;38.65;18.05;;;-2.00;99.90;;;;;;4185485;28;20116;-61
2022/12/13 07:59:52;;;;;;;43.13;19.20;;;-1.90;99.90;;;;;;4189559;28;20037;-62
2022/12/13 08:01:53;;;;;;;39.55;18.73;;;-1.90;99.90;;;;;;4185850;28;20491;-61
2022/12/13 08:03:54;;;;;;;43.03;19.05;;;-1.90;99.90;;;;;;4187935;28;20426;-61
2022/12/13 08:06:12;;;;;;;34.53;17.00;;;-1.90;99.90;;;;;;4187529;28;20487;-62
2022/12/13 08:08:13;;;;;;;44.58;19.10;;;-1.90;99.90;;;;;;4187514;28;20041;-61
2022/12/13 08:10:14;;;;;;;42.45;20.30;;;-1.80;99.90;;;;;;4187738;28;20032;-61
2022/12/13 08:12:14;;;;;;;40.15;19.00;;;-1.80;99.90;;;;;;4188708;28;20032;-61
2022/12/13 08:14:15;;;;;;;39.53;18.55;;;-1.70;99.90;;;;;;4187977;28;20105;-61
2022/12/13 08:16:17;;;;;;;40.35;19.15;;;-1.70;99.90;;;;;;4187766;28;20040;-61
2022/12/13 08:18:17;;;;;;;41.70;19.15;;;-1.50;99.90;;;;;;4186761;28;20496;-63
2022/12/13 08:20:18;;;;;;;40.95;19.13;;;-1.50;99.90;;;;;;4187628;28;20060;-62
2022/12/13 08:22:19;;;;;;;39.95;19.08;;;-1.40;99.90;;;;;;4189214;28;20430;-61
2022/12/13 08:24:20;;;;;;;40.85;20.10;;;-1.40;99.90;;;;;;4187924;28;20501;-61
2022/12/13 08:26:21;;;;;;;40.97;20.15;;;-1.30;99.90;;;;;;4175378;28;20041;-62
2022/12/13 08:28:23;;;;;;;39.05;18.90;;;-1.30;99.90;;;;;;4185540;28;20071;-62
2022/12/13 08:30:24;;;;;;;41.63;19.45;;;-1.20;99.90;;;;;;4185622;28;20036;-61
2022/12/13 08:32:25;;;;;;;41.90;19.90;;;-1.20;99.90;;;;;;4186508;28;20123;-62
2022/12/13 08:34:26;;;;;;;35.22;17.40;;;-1.20;99.90;;;;;;4190119;28;20044;-61
2022/12/13 08:36:27;;;;;;;37.50;18.05;;;-1.20;99.90;;;;;;4188467;28;20071;-61
2022/12/13 08:38:28;;;;;;;44.90;21.13;;;-1.20;99.90;;;;;;4189499;28;20105;-61
2022/12/13 08:40:28;;;;;;;40.40;19.02;;;-1.20;99.90;;;;;;4187198;28;20036;-61
2022/12/13 08:42:29;;;;;;;33.20;17.25;;;-1.20;99.90;;;;;;4190587;28;20041;-61
2022/12/13 08:44:29;;;;;;;41.95;19.38;;;-1.20;99.90;;;;;;4191074;28;20037;-60
2022/12/13 08:46:30;;;;;;;42.60;19.15;;;-1.10;99.90;;;;;;4187693;28;20090;-60
2022/12/13 08:48:31;;;;;;;41.17;18.63;;;-1.10;99.90;;;;;;4189945;28;20051;-61
2022/12/13 08:50:32;;;;;;;43.35;19.38;;;-1.00;99.90;;;;;;4189025;28;20033;-61
2022/12/13 08:52:34;;;;;;;43.55;20.63;;;-1.00;99.90;;;;;;4189955;28;20086;-61
2022/12/13 08:54:34;;;;;;;43.17;20.27;;;-1.00;99.90;;;;;;4191072;28;20090;-61
2022/12/13 08:56:35;;;;;;;45.28;19.88;;;-1.00;99.90;;;;;;4188542;28;20417;-61
2022/12/13 08:58:37;;;;;;;43.45;19.75;;;-1.00;99.90;;;;;;4191194;28;20056;-61
2022/12/13 09:00:39;;;;;;;43.78;20.40;;;-0.90;99.90;;;;;;4191499;28;20090;-61
2022/12/13 09:02:40;;;;;;;44.75;20.90;;;-1.00;99.90;;;;;;4191462;28;20037;-61
2022/12/13 09:04:41;;;;;;;42.75;20.70;;;-1.00;99.90;;;;;;4191921;28;20043;-61
2022/12/13 09:06:42;;;;;;;43.10;20.65;;;-1.00;99.90;;;;;;4190314;28;20047;-61
2022/12/13 09:08:43;;;;;;;45.22;20.63;;;-1.00;99.90;;;;;;4192214;28;20047;-61
2022/12/13 09:10:44;;;;;;;43.08;19.88;;;-1.00;99.90;;;;;;4190307;28;20094;-61
2022/12/13 09:12:45;;;;;;;43.10;19.50;;;-0.90;99.90;;;;;;4191688;28;20048;-61
2022/12/13 09:14:46;;;;;;;38.28;18.50;;;-0.90;99.90;;;;;;4190341;28;20415;-61
2022/12/13 09:16:46;;;;;;;44.25;21.00;;;-0.90;99.90;;;;;;4189983;28;20033;-61
2022/12/13 09:18:47;;;;;;;41.83;18.60;;;-0.90;99.90;;;;;;4189346;28;20476;-61
2022/12/13 09:20:47;;;;;;;38.58;18.80;;;-0.90;99.90;;;;;;4191371;28;20585;-61
2022/12/13 09:22:48;;;;;;;39.50;19.40;;;-0.90;99.90;;;;;;4190258;28;20102;-61
2022/12/13 09:24:49;;;;;;;39.35;19.52;;;-0.90;99.90;;;;;;4192033;28;20029;-61
2022/12/13 09:26:49;;;;;;;38.58;19.50;;;-0.90;99.90;;;;;;4189432;28;20083;-62
2022/12/13 09:28:50;;;;;;;36.55;17.67;;;-0.80;99.90;;;;;;4191574;28;20059;-62
2022/12/13 09:30:51;;;;;;;46.70;20.38;;;-0.80;99.90;;;;;;4188822;28;20135;-62
2022/12/13 09:32:51;;;;;;;42.33;19.67;;;-0.80;99.90;;;;;;4190910;28;20067;-62
2022/12/13 09:34:52;;;;;;;42.15;19.30;;;-0.80;99.90;;;;;;4191191;28;20032;-62
2022/12/13 09:36:52;;;;;;;41.33;19.17;;;-0.80;99.90;;;;;;4188038;28;20048;-62
2022/12/13 09:38:54;;;;;;;38.47;17.85;;;-0.70;99.90;;;;;;4190636;28;20044;-62
2022/12/13 09:40:59;;;;;;;41.28;19.45;;;-0.70;99.90;;;;;;4185251;28;20037;-62
2022/12/13 09:43:01;;;;;;;40.10;18.73;;;-0.70;99.90;;;;;;4187088;28;20033;-61
2022/12/13 09:45:04;;;;;;;39.70;19.05;;;-0.70;99.90;;;;;;4191008;28;20074;-61
2022/12/13 09:47:13;;;;;;;42.97;19.67;;;-0.70;99.90;;;;;;4189980;28;20937;-61
2022/12/13 09:49:17;;;;;;;40.58;19.20;;;-0.70;99.90;;;;;;4191133;28;20108;-61
2022/12/13 09:51:18;;;;;;;38.88;18.33;;;-0.70;99.90;;;;;;4189693;28;20495;-61
2022/12/13 09:53:19;;;;;;;37.47;17.45;;;-0.60;99.90;;;;;;4191527;28;20036;-61
2022/12/13 09:55:28;;;;;;;35.47;17.90;;;-0.70;99.90;;;;;;4189793;28;20051;-62
2022/12/13 09:57:30;;;;;;;37.20;17.67;;;-0.60;99.90;;;;;;4190242;28;20476;-62
2022/12/13 09:59:34;;;;;;;34.70;17.63;;;-0.60;99.90;;;;;;4191164;28;20053;-61
2022/12/13 10:01:35;;;;;;;39.83;18.45;;;-0.60;99.90;;;;;;4190575;28;20072;-61
2022/12/13 10:03:35;;;;;;;39.10;18.88;;;-0.60;99.90;;;;;;4191510;28;20047;-61
2022/12/13 10:05:37;;;;;;;37.72;18.13;;;-0.60;99.90;;;;;;4187650;28;20021;-62
2022/12/13 10:07:39;;;;;;;37.05;16.88;;;-0.50;99.90;;;;;;4188761;28;20097;-62
2022/12/13 10:09:40;;;;;;;34.75;17.23;;;-0.50;99.90;;;;;;4190073;28;21825;-62
2022/12/13 10:11:50;;;;;;;34.55;17.38;;;-0.50;99.90;;;;;;4189588;28;20639;-61
2022/12/13 10:14:02;;;;;;;37.40;17.58;;;-0.50;99.90;;;;;;4190495;28;20131;-63
2022/12/13 10:16:27;;;;;;;40.75;18.45;;;-0.40;99.90;;;;;;4188867;28;20041;-61
2022/12/13 10:18:40;;;;;;;32.50;15.98;;;-0.50;99.90;;;;;;4176983;28;20041;-62
2022/12/13 10:20:41;;;;;;;;;;;-0.40;99.90;;;;;;4183934;28;20498;-61
2022/12/13 10:22:42;;;;;;;34.15;16.00;;;-0.40;99.90;;;;;;4189176;28;19916;-61
2022/12/13 10:24:55;;;;;;;35.88;16.05;;;-0.40;99.90;;;;;;4190510;28;20125;-62
2022/12/13 10:27:08;;;;;;;34.80;16.70;;;-0.40;99.90;;;;;;4188555;28;20395;-62
2022/12/13 10:29:09;;;;;;;30.70;15.60;;;-0.40;99.90;;;;;;4189641;28;20102;-61
2022/12/13 10:31:18;;;;;;;31.70;15.55;;;-0.40;99.90;;;;;;4189060;28;20459;-61